sensor_id;sensor_type;location;lat;lon;timestamp;P1;durP1;ratioP1;P2;durP2;ratioP2
38779;SDS011;29273;49.962;9.768;2022-12-18T00:00:39;7.90;;;5.73;;
38779;SDS011;29273;49.962;9.768;2022-12-18T00:03:06;10.63;;;5.53;;
38779;SDS011;29273;49.962;9.768;2022-12-18T00:05:31;11.13;;;6.07;;
38779;SDS011;29273;49.962;9.768;2022-12-18T00:07:57;10.87;;;6.50;;
38779;SDS011;29273;49.962;9.768;2022-12-18T00:10:23;9.13;;;6.27;;
38779;SDS011;29273;49.962;9.768;2022-12-18T00:12:48;11.37;;;6.40;;
38779;SDS011;29273;49.962;9.768;2022-12-18T00:15:14;9.73;;;6.40;;
38779;SDS011;29273;49.962;9.768;2022-12-18T00:17:39;10.50;;;6.10;;
38779;SDS011;29273;49.962;9.768;2022-12-18T00:20:05;9.53;;;6.23;;
38779;SDS011;29273;49.962;9.768;2022-12-18T00:22:31;11.20;;;6.60;;
38779;SDS011;29273;49.962;9.768;2022-12-18T00:24:56;9.80;;;5.87;;
38779;SDS011;29273;49.962;9.768;2022-12-18T00:27:22;10.20;;;6.23;;
38779;SDS011;29273;49.962;9.768;2022-12-18T00:29:47;11.00;;;6.60;;
38779;SDS011;29273;49.962;9.768;2022-12-18T00:32:13;9.77;;;6.23;;
38779;SDS011;29273;49.962;9.768;2022-12-18T00:34:39;10.33;;;6.53;;
38779;SDS011;29273;49.962;9.768;2022-12-18T00:37:04;9.90;;;6.07;;
38779;SDS011;29273;49.962;9.768;2022-12-18T00:39:30;10.47;;;6.40;;
38779;SDS011;29273;49.962;9.768;2022-12-18T00:41:55;13.33;;;6.80;;
38779;SDS011;29273;49.962;9.768;2022-12-18T00:44:39;10.20;;;6.77;;
38779;SDS011;29273;49.962;9.768;2022-12-18T00:47:05;10.90;;;6.40;;
38779;SDS011;29273;49.962;9.768;2022-12-18T00:49:32;12.60;;;6.80;;
38779;SDS011;29273;49.962;9.768;2022-12-18T00:51:57;11.03;;;6.87;;
38779;SDS011;29273;49.962;9.768;2022-12-18T00:54:23;10.67;;;6.20;;
38779;SDS011;29273;49.962;9.768;2022-12-18T00:56:49;9.43;;;6.43;;
38779;SDS011;29273;49.962;9.768;2022-12-18T00:59:15;11.57;;;6.93;;
38779;SDS011;29273;49.962;9.768;2022-12-18T01:01:41;9.83;;;6.17;;
38779;SDS011;29273;49.962;9.768;2022-12-18T01:04:07;8.30;;;5.53;;
38779;SDS011;29273;49.962;9.768;2022-12-18T01:06:33;9.77;;;5.53;;
38779;SDS011;29273;49.962;9.768;2022-12-18T01:08:58;10.50;;;6.33;;
38779;SDS011;29273;49.962;9.768;2022-12-18T01:11:24;8.80;;;5.60;;
38779;SDS011;29273;49.962;9.768;2022-12-18T01:13:51;10.70;;;6.20;;
38779;SDS011;29273;49.962;9.768;2022-12-18T01:16:17;10.80;;;6.43;;
38779;SDS011;29273;49.962;9.768;2022-12-18T01:18:43;10.60;;;5.97;;
38779;SDS011;29273;49.962;9.768;2022-12-18T01:21:10;9.63;;;6.20;;
38779;SDS011;29273;49.962;9.768;2022-12-18T01:23:37;11.07;;;6.20;;
38779;SDS011;29273;49.962;9.768;2022-12-18T01:26:07;10.17;;;6.10;;
38779;SDS011;29273;49.962;9.768;2022-12-18T01:28:34;8.63;;;6.22;;
38779;SDS011;29273;49.962;9.768;2022-12-18T01:31:20;12.63;;;6.50;;
38779;SDS011;29273;49.962;9.768;2022-12-18T01:33:49;11.27;;;6.20;;
38779;SDS011;29273;49.962;9.768;2022-12-18T01:36:16;8.43;;;5.50;;
38779;SDS011;29273;49.962;9.768;2022-12-18T01:38:43;9.70;;;6.13;;
38779;SDS011;29273;49.962;9.768;2022-12-18T01:41:09;8.90;;;5.70;;
38779;SDS011;29273;49.962;9.768;2022-12-18T01:46:08;9.30;;;5.97;;
38779;SDS011;29273;49.962;9.768;2022-12-18T01:48:34;10.00;;;6.23;;
38779;SDS011;29273;49.962;9.768;2022-12-18T01:51:00;11.00;;;6.07;;
38779;SDS011;29273;49.962;9.768;2022-12-18T01:53:26;10.10;;;5.40;;
38779;SDS011;29273;49.962;9.768;2022-12-18T01:55:55;10.53;;;5.80;;
38779;SDS011;29273;49.962;9.768;2022-12-18T01:58:24;9.10;;;5.60;;
38779;SDS011;29273;49.962;9.768;2022-12-18T02:01:00;11.83;;;5.63;;
38779;SDS011;29273;49.962;9.768;2022-12-18T02:03:26;9.30;;;5.30;;
38779;SDS011;29273;49.962;9.768;2022-12-18T02:05:58;9.07;;;6.20;;
38779;SDS011;29273;49.962;9.768;2022-12-18T02:08:46;8.90;;;5.60;;
38779;SDS011;29273;49.962;9.768;2022-12-18T02:14:11;9.67;;;5.23;;
38779;SDS011;29273;49.962;9.768;2022-12-18T02:22:12;9.57;;;5.90;;
38779;SDS011;29273;49.962;9.768;2022-12-18T02:24:52;8.80;;;5.70;;
38779;SDS011;29273;49.962;9.768;2022-12-18T02:27:18;10.07;;;5.70;;
38779;SDS011;29273;49.962;9.768;2022-12-18T02:29:50;12.73;;;6.10;;
38779;SDS011;29273;49.962;9.768;2022-12-18T02:32:25;8.10;;;5.50;;
38779;SDS011;29273;49.962;9.768;2022-12-18T02:34:58;9.43;;;5.30;;
38779;SDS011;29273;49.962;9.768;2022-12-18T02:37:27;9.90;;;5.40;;
38779;SDS011;29273;49.962;9.768;2022-12-18T02:39:56;11.03;;;6.20;;
38779;SDS011;29273;49.962;9.768;2022-12-18T02:42:24;9.23;;;5.97;;
38779;SDS011;29273;49.962;9.768;2022-12-18T02:44:51;8.23;;;5.73;;
38779;SDS011;29273;49.962;9.768;2022-12-18T02:47:22;11.07;;;6.17;;
38779;SDS011;29273;49.962;9.768;2022-12-18T02:52:28;9.17;;;5.80;;
38779;SDS011;29273;49.962;9.768;2022-12-18T03:00:41;9.07;;;5.53;;
38779;SDS011;29273;49.962;9.768;2022-12-18T03:03:14;8.57;;;5.47;;
38779;SDS011;29273;49.962;9.768;2022-12-18T03:05:53;8.37;;;5.43;;
38779;SDS011;29273;49.962;9.768;2022-12-18T03:08:25;8.67;;;5.80;;
38779;SDS011;29273;49.962;9.768;2022-12-18T03:11:03;10.33;;;5.87;;
38779;SDS011;29273;49.962;9.768;2022-12-18T03:13:33;9.80;;;5.77;;
38779;SDS011;29273;49.962;9.768;2022-12-18T03:16:15;8.63;;;5.57;;
38779;SDS011;29273;49.962;9.768;2022-12-18T03:18:49;5.80;;;4.27;;
38779;SDS011;29273;49.962;9.768;2022-12-18T03:21:19;8.50;;;5.35;;
38779;SDS011;29273;49.962;9.768;2022-12-18T03:23:51;10.70;;;5.37;;
38779;SDS011;29273;49.962;9.768;2022-12-18T03:26:21;7.77;;;5.00;;
38779;SDS011;29273;49.962;9.768;2022-12-18T03:28:55;7.87;;;4.97;;
38779;SDS011;29273;49.962;9.768;2022-12-18T03:33:54;7.07;;;4.70;;
38779;SDS011;29273;49.962;9.768;2022-12-18T03:36:30;8.90;;;5.27;;
38779;SDS011;29273;49.962;9.768;2022-12-18T03:38:58;10.70;;;5.57;;
38779;SDS011;29273;49.962;9.768;2022-12-18T03:44:29;8.60;;;5.53;;
38779;SDS011;29273;49.962;9.768;2022-12-18T03:47:09;10.30;;;5.97;;
38779;SDS011;29273;49.962;9.768;2022-12-18T03:52:27;9.60;;;5.57;;
38779;SDS011;29273;49.962;9.768;2022-12-18T03:55:00;9.53;;;5.60;;
38779;SDS011;29273;49.962;9.768;2022-12-18T03:57:30;9.67;;;5.00;;
38779;SDS011;29273;49.962;9.768;2022-12-18T04:00:07;9.47;;;5.67;;
38779;SDS011;29273;49.962;9.768;2022-12-18T04:02:54;9.03;;;5.27;;
38779;SDS011;29273;49.962;9.768;2022-12-18T04:05:29;9.30;;;5.90;;
38779;SDS011;29273;49.962;9.768;2022-12-18T04:07:56;8.13;;;5.30;;
38779;SDS011;29273;49.962;9.768;2022-12-18T04:10:22;8.90;;;5.43;;
38779;SDS011;29273;49.962;9.768;2022-12-18T04:12:48;10.63;;;6.07;;
38779;SDS011;29273;49.962;9.768;2022-12-18T04:15:14;7.90;;;5.23;;
38779;SDS011;29273;49.962;9.768;2022-12-18T04:17:43;9.03;;;5.30;;
38779;SDS011;29273;49.962;9.768;2022-12-18T04:20:14;8.93;;;4.93;;
38779;SDS011;29273;49.962;9.768;2022-12-18T04:22:42;7.40;;;5.07;;
38779;SDS011;29273;49.962;9.768;2022-12-18T04:25:08;9.97;;;6.10;;
38779;SDS011;29273;49.962;9.768;2022-12-18T04:27:46;7.50;;;4.93;;
38779;SDS011;29273;49.962;9.768;2022-12-18T04:30:12;9.87;;;5.47;;
38779;SDS011;29273;49.962;9.768;2022-12-18T04:32:37;8.13;;;4.70;;
38779;SDS011;29273;49.962;9.768;2022-12-18T04:35:03;8.73;;;5.00;;
38779;SDS011;29273;49.962;9.768;2022-12-18T04:37:31;9.30;;;5.80;;
38779;SDS011;29273;49.962;9.768;2022-12-18T04:39:58;10.13;;;5.63;;
38779;SDS011;29273;49.962;9.768;2022-12-18T04:42:31;8.00;;;5.50;;
38779;SDS011;29273;49.962;9.768;2022-12-18T04:44:57;8.37;;;5.80;;
38779;SDS011;29273;49.962;9.768;2022-12-18T04:47:22;8.23;;;5.20;;
38779;SDS011;29273;49.962;9.768;2022-12-18T04:49:48;8.33;;;5.23;;
38779;SDS011;29273;49.962;9.768;2022-12-18T04:52:13;7.97;;;5.23;;
38779;SDS011;29273;49.962;9.768;2022-12-18T04:54:39;9.47;;;5.60;;
38779;SDS011;29273;49.962;9.768;2022-12-18T04:57:04;10.93;;;5.83;;
38779;SDS011;29273;49.962;9.768;2022-12-18T04:59:30;10.70;;;5.97;;
38779;SDS011;29273;49.962;9.768;2022-12-18T05:01:55;7.80;;;5.13;;
38779;SDS011;29273;49.962;9.768;2022-12-18T05:04:21;7.57;;;5.07;;
38779;SDS011;29273;49.962;9.768;2022-12-18T05:06:46;9.43;;;5.30;;
38779;SDS011;29273;49.962;9.768;2022-12-18T05:09:12;8.20;;;5.23;;
38779;SDS011;29273;49.962;9.768;2022-12-18T05:11:37;9.03;;;5.33;;
38779;SDS011;29273;49.962;9.768;2022-12-18T05:14:03;9.27;;;5.43;;
38779;SDS011;29273;49.962;9.768;2022-12-18T05:16:29;8.27;;;5.43;;
38779;SDS011;29273;49.962;9.768;2022-12-18T05:18:54;10.87;;;6.17;;
38779;SDS011;29273;49.962;9.768;2022-12-18T05:21:20;8.77;;;6.00;;
38779;SDS011;29273;49.962;9.768;2022-12-18T05:23:45;10.03;;;5.83;;
38779;SDS011;29273;49.962;9.768;2022-12-18T05:26:13;9.67;;;5.50;;
38779;SDS011;29273;49.962;9.768;2022-12-18T05:28:41;8.70;;;5.13;;
38779;SDS011;29273;49.962;9.768;2022-12-18T05:31:06;8.57;;;5.57;;
38779;SDS011;29273;49.962;9.768;2022-12-18T05:33:33;9.07;;;5.10;;
38779;SDS011;29273;49.962;9.768;2022-12-18T05:36:00;8.53;;;5.30;;
38779;SDS011;29273;49.962;9.768;2022-12-18T05:38:27;10.07;;;5.17;;
38779;SDS011;29273;49.962;9.768;2022-12-18T05:40:54;9.03;;;5.23;;
38779;SDS011;29273;49.962;9.768;2022-12-18T05:43:21;8.37;;;5.57;;
38779;SDS011;29273;49.962;9.768;2022-12-18T05:45:48;7.70;;;4.97;;
38779;SDS011;29273;49.962;9.768;2022-12-18T05:48:14;7.90;;;5.30;;
38779;SDS011;29273;49.962;9.768;2022-12-18T05:50:41;9.53;;;5.90;;
38779;SDS011;29273;49.962;9.768;2022-12-18T05:53:08;10.60;;;5.93;;
38779;SDS011;29273;49.962;9.768;2022-12-18T05:55:34;9.07;;;5.30;;
38779;SDS011;29273;49.962;9.768;2022-12-18T05:58:00;10.53;;;6.63;;
38779;SDS011;29273;49.962;9.768;2022-12-18T06:00:26;9.93;;;6.13;;
38779;SDS011;29273;49.962;9.768;2022-12-18T06:02:52;8.80;;;5.70;;
38779;SDS011;29273;49.962;9.768;2022-12-18T06:05:17;11.27;;;6.03;;
38779;SDS011;29273;49.962;9.768;2022-12-18T06:07:43;8.60;;;5.20;;
38779;SDS011;29273;49.962;9.768;2022-12-18T06:10:09;10.30;;;5.90;;
38779;SDS011;29273;49.962;9.768;2022-12-18T06:12:34;8.43;;;5.40;;
38779;SDS011;29273;49.962;9.768;2022-12-18T06:15:00;8.07;;;5.50;;
38779;SDS011;29273;49.962;9.768;2022-12-18T06:17:31;10.70;;;5.80;;
38779;SDS011;29273;49.962;9.768;2022-12-18T06:19:57;11.75;;;6.10;;
38779;SDS011;29273;49.962;9.768;2022-12-18T06:22:23;10.93;;;5.60;;
38779;SDS011;29273;49.962;9.768;2022-12-18T06:24:48;10.70;;;6.00;;
38779;SDS011;29273;49.962;9.768;2022-12-18T06:27:14;12.77;;;6.10;;
38779;SDS011;29273;49.962;9.768;2022-12-18T06:29:40;12.67;;;6.67;;
38779;SDS011;29273;49.962;9.768;2022-12-18T06:32:05;12.93;;;6.33;;
38779;SDS011;29273;49.962;9.768;2022-12-18T06:34:31;11.90;;;6.53;;
38779;SDS011;29273;49.962;9.768;2022-12-18T06:36:57;13.30;;;6.33;;
38779;SDS011;29273;49.962;9.768;2022-12-18T06:39:23;11.37;;;6.50;;
38779;SDS011;29273;49.962;9.768;2022-12-18T06:41:49;12.00;;;5.93;;
38779;SDS011;29273;49.962;9.768;2022-12-18T06:44:14;9.60;;;6.23;;
38779;SDS011;29273;49.962;9.768;2022-12-18T06:46:40;10.40;;;6.30;;
38779;SDS011;29273;49.962;9.768;2022-12-18T06:49:05;8.43;;;5.97;;
38779;SDS011;29273;49.962;9.768;2022-12-18T06:51:31;10.57;;;5.83;;
38779;SDS011;29273;49.962;9.768;2022-12-18T06:53:57;9.70;;;6.03;;
38779;SDS011;29273;49.962;9.768;2022-12-18T06:56:22;11.63;;;6.73;;
38779;SDS011;29273;49.962;9.768;2022-12-18T06:58:48;12.03;;;6.70;;
38779;SDS011;29273;49.962;9.768;2022-12-18T07:01:13;10.27;;;5.87;;
38779;SDS011;29273;49.962;9.768;2022-12-18T07:03:39;9.93;;;6.10;;
38779;SDS011;29273;49.962;9.768;2022-12-18T07:06:06;9.80;;;5.90;;
38779;SDS011;29273;49.962;9.768;2022-12-18T07:08:37;10.73;;;6.18;;
38779;SDS011;29273;49.962;9.768;2022-12-18T07:11:03;10.03;;;6.70;;
38779;SDS011;29273;49.962;9.768;2022-12-18T07:13:29;10.13;;;6.30;;
38779;SDS011;29273;49.962;9.768;2022-12-18T07:15:55;12.63;;;7.17;;
38779;SDS011;29273;49.962;9.768;2022-12-18T07:18:20;12.07;;;7.37;;
38779;SDS011;29273;49.962;9.768;2022-12-18T07:20:45;11.30;;;6.30;;
38779;SDS011;29273;49.962;9.768;2022-12-18T07:23:11;9.57;;;6.33;;
38779;SDS011;29273;49.962;9.768;2022-12-18T07:25:36;11.83;;;6.13;;
38779;SDS011;29273;49.962;9.768;2022-12-18T07:28:03;10.63;;;6.47;;
38779;SDS011;29273;49.962;9.768;2022-12-18T07:30:29;10.93;;;6.33;;
38779;SDS011;29273;49.962;9.768;2022-12-18T07:32:54;11.60;;;6.67;;
38779;SDS011;29273;49.962;9.768;2022-12-18T07:35:20;13.60;;;7.30;;
38779;SDS011;29273;49.962;9.768;2022-12-18T07:37:45;13.30;;;7.60;;
38779;SDS011;29273;49.962;9.768;2022-12-18T07:40:11;15.50;;;8.07;;
38779;SDS011;29273;49.962;9.768;2022-12-18T07:42:37;16.40;;;9.33;;
38779;SDS011;29273;49.962;9.768;2022-12-18T07:45:03;14.27;;;8.77;;
38779;SDS011;29273;49.962;9.768;2022-12-18T07:47:29;15.70;;;8.17;;
38779;SDS011;29273;49.962;9.768;2022-12-18T07:49:54;14.40;;;8.37;;
38779;SDS011;29273;49.962;9.768;2022-12-18T07:52:20;15.33;;;8.67;;
38779;SDS011;29273;49.962;9.768;2022-12-18T07:54:46;13.97;;;8.10;;
38779;SDS011;29273;49.962;9.768;2022-12-18T07:57:14;14.10;;;8.13;;
38779;SDS011;29273;49.962;9.768;2022-12-18T07:59:39;14.43;;;7.50;;
38779;SDS011;29273;49.962;9.768;2022-12-18T08:02:05;13.70;;;8.43;;
38779;SDS011;29273;49.962;9.768;2022-12-18T08:04:30;12.47;;;7.03;;
38779;SDS011;29273;49.962;9.768;2022-12-18T08:06:56;13.67;;;7.70;;
38779;SDS011;29273;49.962;9.768;2022-12-18T08:09:21;12.17;;;6.83;;
38779;SDS011;29273;49.962;9.768;2022-12-18T08:11:47;12.23;;;6.63;;
38779;SDS011;29273;49.962;9.768;2022-12-18T08:14:12;12.50;;;7.97;;
38779;SDS011;29273;49.962;9.768;2022-12-18T08:16:38;11.37;;;7.47;;
38779;SDS011;29273;49.962;9.768;2022-12-18T08:19:04;12.83;;;7.50;;
38779;SDS011;29273;49.962;9.768;2022-12-18T08:21:30;11.63;;;6.90;;
38779;SDS011;29273;49.962;9.768;2022-12-18T08:23:57;10.30;;;6.63;;
38779;SDS011;29273;49.962;9.768;2022-12-18T08:26:26;10.90;;;6.13;;
38779;SDS011;29273;49.962;9.768;2022-12-18T08:28:54;11.30;;;7.23;;
38779;SDS011;29273;49.962;9.768;2022-12-18T08:31:20;10.33;;;6.23;;
38779;SDS011;29273;49.962;9.768;2022-12-18T08:33:50;9.80;;;5.73;;
38779;SDS011;29273;49.962;9.768;2022-12-18T08:36:17;11.10;;;6.57;;
38779;SDS011;29273;49.962;9.768;2022-12-18T08:38:44;9.43;;;6.17;;
38779;SDS011;29273;49.962;9.768;2022-12-18T08:41:10;10.70;;;6.30;;
38779;SDS011;29273;49.962;9.768;2022-12-18T08:43:37;12.30;;;6.77;;
38779;SDS011;29273;49.962;9.768;2022-12-18T08:46:22;9.60;;;5.63;;
38779;SDS011;29273;49.962;9.768;2022-12-18T08:48:53;12.10;;;7.10;;
38779;SDS011;29273;49.962;9.768;2022-12-18T08:51:20;12.37;;;6.73;;
38779;SDS011;29273;49.962;9.768;2022-12-18T08:53:45;10.40;;;6.70;;
38779;SDS011;29273;49.962;9.768;2022-12-18T08:56:12;12.23;;;6.77;;
38779;SDS011;29273;49.962;9.768;2022-12-18T08:58:38;11.70;;;6.63;;
38779;SDS011;29273;49.962;9.768;2022-12-18T09:01:04;10.93;;;6.53;;
38779;SDS011;29273;49.962;9.768;2022-12-18T09:03:31;11.40;;;6.67;;
38779;SDS011;29273;49.962;9.768;2022-12-18T09:05:59;13.30;;;7.63;;
38779;SDS011;29273;49.962;9.768;2022-12-18T09:08:25;11.87;;;7.70;;
38779;SDS011;29273;49.962;9.768;2022-12-18T09:10:51;12.57;;;7.50;;
38779;SDS011;29273;49.962;9.768;2022-12-18T09:13:17;14.83;;;8.17;;
38779;SDS011;29273;49.962;9.768;2022-12-18T09:15:45;12.87;;;8.50;;
38779;SDS011;29273;49.962;9.768;2022-12-18T09:18:13;13.73;;;7.87;;
38779;SDS011;29273;49.962;9.768;2022-12-18T09:20:39;13.53;;;8.13;;
38779;SDS011;29273;49.962;9.768;2022-12-18T09:23:05;15.37;;;8.77;;
38779;SDS011;29273;49.962;9.768;2022-12-18T09:25:31;12.83;;;7.83;;
38779;SDS011;29273;49.962;9.768;2022-12-18T09:27:58;13.77;;;8.03;;
38779;SDS011;29273;49.962;9.768;2022-12-18T09:30:25;18.80;;;8.43;;
38779;SDS011;29273;49.962;9.768;2022-12-18T09:32:51;16.30;;;8.30;;
38779;SDS011;29273;49.962;9.768;2022-12-18T09:35:20;16.97;;;8.60;;
38779;SDS011;29273;49.962;9.768;2022-12-18T09:37:45;17.50;;;8.73;;
38779;SDS011;29273;49.962;9.768;2022-12-18T09:40:18;16.53;;;8.40;;
38779;SDS011;29273;49.962;9.768;2022-12-18T09:42:48;14.93;;;7.90;;
38779;SDS011;29273;49.962;9.768;2022-12-18T09:45:19;15.73;;;8.33;;
38779;SDS011;29273;49.962;9.768;2022-12-18T09:47:45;15.37;;;8.87;;
38779;SDS011;29273;49.962;9.768;2022-12-18T09:50:35;15.67;;;8.50;;
38779;SDS011;29273;49.962;9.768;2022-12-18T09:53:04;16.33;;;8.60;;
38779;SDS011;29273;49.962;9.768;2022-12-18T09:55:37;15.47;;;8.40;;
38779;SDS011;29273;49.962;9.768;2022-12-18T09:58:06;16.90;;;8.63;;
38779;SDS011;29273;49.962;9.768;2022-12-18T10:00:35;17.10;;;9.07;;
38779;SDS011;29273;49.962;9.768;2022-12-18T10:03:03;15.80;;;8.67;;
38779;SDS011;29273;49.962;9.768;2022-12-18T10:05:37;17.23;;;8.67;;
38779;SDS011;29273;49.962;9.768;2022-12-18T10:11:20;15.77;;;8.10;;
38779;SDS011;29273;49.962;9.768;2022-12-18T10:13:48;15.93;;;8.57;;
38779;SDS011;29273;49.962;9.768;2022-12-18T10:16:30;14.80;;;8.50;;
38779;SDS011;29273;49.962;9.768;2022-12-18T10:21:45;19.03;;;9.60;;
38779;SDS011;29273;49.962;9.768;2022-12-18T10:27:16;18.43;;;9.30;;
38779;SDS011;29273;49.962;9.768;2022-12-18T10:29:46;18.20;;;8.57;;
38779;SDS011;29273;49.962;9.768;2022-12-18T10:32:16;17.97;;;9.47;;
38779;SDS011;29273;49.962;9.768;2022-12-18T10:35:02;15.40;;;8.40;;
38779;SDS011;29273;49.962;9.768;2022-12-18T10:37:29;19.30;;;9.85;;
38779;SDS011;29273;49.962;9.768;2022-12-18T10:42:40;17.10;;;8.90;;
38779;SDS011;29273;49.962;9.768;2022-12-18T10:45:16;17.07;;;8.67;;
38779;SDS011;29273;49.962;9.768;2022-12-18T10:47:46;16.40;;;9.65;;
38779;SDS011;29273;49.962;9.768;2022-12-18T10:50:26;15.02;;;8.50;;
38779;SDS011;29273;49.962;9.768;2022-12-18T10:52:59;14.50;;;8.10;;
38779;SDS011;29273;49.962;9.768;2022-12-18T10:55:37;17.80;;;9.10;;
38779;SDS011;29273;49.962;9.768;2022-12-18T10:58:16;16.35;;;9.35;;
38779;SDS011;29273;49.962;9.768;2022-12-18T11:01:01;16.43;;;8.37;;
38779;SDS011;29273;49.962;9.768;2022-12-18T11:03:46;15.60;;;8.15;;
38779;SDS011;29273;49.962;9.768;2022-12-18T11:06:24;16.70;;;8.18;;
38779;SDS011;29273;49.962;9.768;2022-12-18T11:09:04;15.73;;;8.32;;
38779;SDS011;29273;49.962;9.768;2022-12-18T11:11:31;13.43;;;8.10;;
38779;SDS011;29273;49.962;9.768;2022-12-18T11:14:02;16.98;;;8.15;;
38779;SDS011;29273;49.962;9.768;2022-12-18T11:22:00;15.30;;;8.30;;
38779;SDS011;29273;49.962;9.768;2022-12-18T11:24:33;16.38;;;9.15;;
38779;SDS011;29273;49.962;9.768;2022-12-18T11:27:03;17.90;;;9.68;;
38779;SDS011;29273;49.962;9.768;2022-12-18T11:29:37;16.75;;;9.35;;
38779;SDS011;29273;49.962;9.768;2022-12-18T11:34:50;17.27;;;8.82;;
38779;SDS011;29273;49.962;9.768;2022-12-18T11:37:22;15.73;;;8.35;;
38779;SDS011;29273;49.962;9.768;2022-12-18T11:39:49;17.63;;;9.10;;
38779;SDS011;29273;49.962;9.768;2022-12-18T11:42:30;16.10;;;8.55;;
38779;SDS011;29273;49.962;9.768;2022-12-18T11:45:47;15.15;;;7.97;;
38779;SDS011;29273;49.962;9.768;2022-12-18T11:50:51;15.15;;;7.40;;
38779;SDS011;29273;49.962;9.768;2022-12-18T11:53:18;14.20;;;8.20;;
38779;SDS011;29273;49.962;9.768;2022-12-18T12:01:18;16.00;;;10.15;;
38779;SDS011;29273;49.962;9.768;2022-12-18T12:20:44;15.23;;;8.90;;
38779;SDS011;29273;49.962;9.768;2022-12-18T12:42:18;12.45;;;7.20;;
38779;SDS011;29273;49.962;9.768;2022-12-18T12:45:11;15.25;;;7.50;;
38779;SDS011;29273;49.962;9.768;2022-12-18T12:47:43;12.73;;;7.50;;
38779;SDS011;29273;49.962;9.768;2022-12-18T12:50:15;13.82;;;7.40;;
38779;SDS011;29273;49.962;9.768;2022-12-18T12:52:44;13.80;;;7.68;;
38779;SDS011;29273;49.962;9.768;2022-12-18T12:55:23;13.98;;;7.72;;
38779;SDS011;29273;49.962;9.768;2022-12-18T13:00:40;16.08;;;10.23;;
38779;SDS011;29273;49.962;9.768;2022-12-18T13:03:31;16.58;;;9.30;;
38779;SDS011;29273;49.962;9.768;2022-12-18T13:06:18;15.20;;;8.77;;
38779;SDS011;29273;49.962;9.768;2022-12-18T13:08:54;15.13;;;8.40;;
38779;SDS011;29273;49.962;9.768;2022-12-18T13:11:31;15.38;;;8.35;;
38779;SDS011;29273;49.962;9.768;2022-12-18T13:14:37;15.65;;;8.43;;
38779;SDS011;29273;49.962;9.768;2022-12-18T13:19:49;15.77;;;8.32;;
38779;SDS011;29273;49.962;9.768;2022-12-18T13:22:20;12.80;;;7.60;;
38779;SDS011;29273;49.962;9.768;2022-12-18T13:24:53;13.73;;;8.10;;
38779;SDS011;29273;49.962;9.768;2022-12-18T13:45:49;15.05;;;8.18;;
38779;SDS011;29273;49.962;9.768;2022-12-18T13:48:24;14.32;;;8.38;;
38779;SDS011;29273;49.962;9.768;2022-12-18T13:50:53;14.40;;;8.30;;
38779;SDS011;29273;49.962;9.768;2022-12-18T13:53:23;13.80;;;7.55;;
38779;SDS011;29273;49.962;9.768;2022-12-18T13:55:52;13.87;;;8.30;;
38779;SDS011;29273;49.962;9.768;2022-12-18T13:58:18;15.45;;;8.38;;
38779;SDS011;29273;49.962;9.768;2022-12-18T14:00:44;11.75;;;7.38;;
38779;SDS011;29273;49.962;9.768;2022-12-18T14:03:17;13.75;;;8.05;;
38779;SDS011;29273;49.962;9.768;2022-12-18T14:05:45;13.60;;;7.93;;
38779;SDS011;29273;49.962;9.768;2022-12-18T14:08:18;13.07;;;7.47;;
38779;SDS011;29273;49.962;9.768;2022-12-18T14:10:45;11.70;;;7.00;;
38779;SDS011;29273;49.962;9.768;2022-12-18T14:13:17;13.07;;;7.60;;
38779;SDS011;29273;49.962;9.768;2022-12-18T14:15:48;13.98;;;8.10;;
38779;SDS011;29273;49.962;9.768;2022-12-18T14:20:45;14.55;;;7.65;;
38779;SDS011;29273;49.962;9.768;2022-12-18T14:26:20;12.63;;;7.30;;
38779;SDS011;29273;49.962;9.768;2022-12-18T14:28:57;13.85;;;7.57;;
38779;SDS011;29273;49.962;9.768;2022-12-18T14:31:27;12.77;;;7.65;;
38779;SDS011;29273;49.962;9.768;2022-12-18T14:33:54;13.90;;;8.20;;
38779;SDS011;29273;49.962;9.768;2022-12-18T14:36:21;13.85;;;8.13;;
38779;SDS011;29273;49.962;9.768;2022-12-18T14:38:49;12.65;;;7.53;;
38779;SDS011;29273;49.962;9.768;2022-12-18T14:41:16;12.35;;;7.18;;
38779;SDS011;29273;49.962;9.768;2022-12-18T14:43:43;13.63;;;7.78;;
38779;SDS011;29273;49.962;9.768;2022-12-18T14:48:51;12.77;;;7.32;;
38779;SDS011;29273;49.962;9.768;2022-12-18T14:51:17;12.95;;;6.88;;
38779;SDS011;29273;49.962;9.768;2022-12-18T14:56:28;12.05;;;6.90;;
38779;SDS011;29273;49.962;9.768;2022-12-18T14:59:00;13.35;;;7.90;;
38779;SDS011;29273;49.962;9.768;2022-12-18T15:01:35;13.32;;;7.50;;
38779;SDS011;29273;49.962;9.768;2022-12-18T15:04:03;11.63;;;7.22;;
38779;SDS011;29273;49.962;9.768;2022-12-18T15:06:45;13.05;;;7.72;;
38779;SDS011;29273;49.962;9.768;2022-12-18T15:09:24;13.15;;;8.07;;
38779;SDS011;29273;49.962;9.768;2022-12-18T15:11:55;14.48;;;7.97;;
38779;SDS011;29273;49.962;9.768;2022-12-18T15:19:39;12.90;;;7.10;;
38779;SDS011;29273;49.962;9.768;2022-12-18T15:22:17;13.65;;;7.57;;
38779;SDS011;29273;49.962;9.768;2022-12-18T15:24:45;14.48;;;8.10;;
38779;SDS011;29273;49.962;9.768;2022-12-18T15:27:20;13.15;;;7.85;;
38779;SDS011;29273;49.962;9.768;2022-12-18T15:32:26;11.40;;;7.35;;
38779;SDS011;29273;49.962;9.768;2022-12-18T15:35:01;11.70;;;6.97;;
38779;SDS011;29273;49.962;9.768;2022-12-18T15:37:47;13.90;;;8.00;;
38779;SDS011;29273;49.962;9.768;2022-12-18T15:40:14;12.65;;;7.25;;
38779;SDS011;29273;49.962;9.768;2022-12-18T15:42:41;10.82;;;6.60;;
38779;SDS011;29273;49.962;9.768;2022-12-18T15:45:26;12.50;;;7.13;;
38779;SDS011;29273;49.962;9.768;2022-12-18T15:47:52;14.15;;;7.93;;
38779;SDS011;29273;49.962;9.768;2022-12-18T15:50:17;13.02;;;7.28;;
38779;SDS011;29273;49.962;9.768;2022-12-18T15:52:44;12.40;;;7.63;;
38779;SDS011;29273;49.962;9.768;2022-12-18T15:55:13;13.93;;;7.78;;
38779;SDS011;29273;49.962;9.768;2022-12-18T15:57:58;11.48;;;6.82;;
38779;SDS011;29273;49.962;9.768;2022-12-18T16:00:24;11.45;;;7.05;;
38779;SDS011;29273;49.962;9.768;2022-12-18T16:02:50;14.02;;;7.53;;
38779;SDS011;29273;49.962;9.768;2022-12-18T16:05:16;12.00;;;7.47;;
38779;SDS011;29273;49.962;9.768;2022-12-18T16:07:43;14.90;;;7.90;;
38779;SDS011;29273;49.962;9.768;2022-12-18T16:10:10;13.52;;;7.38;;
38779;SDS011;29273;49.962;9.768;2022-12-18T16:12:36;13.88;;;7.90;;
38779;SDS011;29273;49.962;9.768;2022-12-18T16:15:02;14.27;;;7.93;;
38779;SDS011;29273;49.962;9.768;2022-12-18T16:17:29;12.70;;;7.32;;
38779;SDS011;29273;49.962;9.768;2022-12-18T16:19:55;13.70;;;8.45;;
38779;SDS011;29273;49.962;9.768;2022-12-18T16:22:22;15.55;;;8.65;;
38779;SDS011;29273;49.962;9.768;2022-12-18T16:24:49;17.35;;;9.15;;
38779;SDS011;29273;49.962;9.768;2022-12-18T16:27:17;14.50;;;8.00;;
38779;SDS011;29273;49.962;9.768;2022-12-18T16:29:43;13.95;;;7.55;;
38779;SDS011;29273;49.962;9.768;2022-12-18T16:32:11;14.38;;;7.90;;
38779;SDS011;29273;49.962;9.768;2022-12-18T16:34:39;12.90;;;7.60;;
38779;SDS011;29273;49.962;9.768;2022-12-18T16:37:07;12.15;;;7.72;;
38779;SDS011;29273;49.962;9.768;2022-12-18T16:39:34;14.35;;;7.55;;
38779;SDS011;29273;49.962;9.768;2022-12-18T16:42:01;13.40;;;7.47;;
38779;SDS011;29273;49.962;9.768;2022-12-18T16:44:28;12.00;;;7.20;;
38779;SDS011;29273;49.962;9.768;2022-12-18T16:46:53;13.32;;;7.85;;
38779;SDS011;29273;49.962;9.768;2022-12-18T16:49:19;11.90;;;7.40;;
38779;SDS011;29273;49.962;9.768;2022-12-18T16:51:45;14.10;;;7.95;;
38779;SDS011;29273;49.962;9.768;2022-12-18T16:54:11;13.18;;;7.70;;
38779;SDS011;29273;49.962;9.768;2022-12-18T16:56:37;13.13;;;7.72;;
38779;SDS011;29273;49.962;9.768;2022-12-18T16:59:04;14.93;;;8.05;;
38779;SDS011;29273;49.962;9.768;2022-12-18T17:01:30;13.70;;;7.47;;
38779;SDS011;29273;49.962;9.768;2022-12-18T17:03:58;12.52;;;7.75;;